ENSG/SOG METAR and TAF weather

Enter ICAO airport designator
Station Type Date Time Source
ENSG METAR 2019/04/18 19:20 UTC NOAA

ENSG 181920Z 00000KT CAVOK 04/M04 Q1038 RMK WIND 3806FT 12003KT


Station Type Date Time Source
ENSG Decoded METAR 2019/04/18 19:20 UTC NOAA

Sogndal / Haukasen, Norway (ENSG) 61-09N 007-08E 497M
Apr 18, 2019 - 03:20 PM EDT / 2019.04.18 1920 UTC
Wind: Calm:0
Visibility: greater than 7 mile(s):0
Temperature: 39 F (4 C)
Dew Point: 24 F (-4 C)
Relative Humidity: 55%
Pressure (altimeter): 30.65 in. Hg (1038 hPa)
ob: ENSG 181920Z 00000KT CAVOK 04/M04 Q1038 RMK WIND 3806FT 12003KT
cycle: 19

Station Type Date Time Source
ENSG TAF UTC NOAA

Error!

Example: see airport list